sensor_id;sensor_type;location;lat;lon;timestamp;pressure;altitude;pressure_sealevel;temperature
69857;BMP280;57147;53.582;10.112;2022-11-20T00:03:08;101061.28;;;1.42
69857;BMP280;57147;53.582;10.112;2022-11-20T00:08:11;101061.81;;;1.33
69857;BMP280;57147;53.582;10.112;2022-11-20T00:13:12;101068.13;;;1.43
69857;BMP280;57147;53.582;10.112;2022-11-20T00:18:13;101065.00;;;1.35
69857;BMP280;57147;53.582;10.112;2022-11-20T00:23:16;101065.44;;;1.32
69857;BMP280;57147;53.582;10.112;2022-11-20T00:28:16;101055.25;;;1.42
69857;BMP280;57147;53.582;10.112;2022-11-20T00:33:17;101063.09;;;1.24
69857;BMP280;57147;53.582;10.112;2022-11-20T00:38:20;101062.91;;;1.19
69857;BMP280;57147;53.582;10.112;2022-11-20T00:43:20;101055.56;;;1.09
69857;BMP280;57147;53.582;10.112;2022-11-20T00:48:21;101049.78;;;1.25
69857;BMP280;57147;53.582;10.112;2022-11-20T00:53:24;101051.50;;;1.38
69857;BMP280;57147;53.582;10.112;2022-11-20T00:58:29;101051.56;;;1.06
69857;BMP280;57147;53.582;10.112;2022-11-20T01:03:31;101043.56;;;1.01
69857;BMP280;57147;53.582;10.112;2022-11-20T01:08:35;101042.72;;;1.07
69857;BMP280;57147;53.582;10.112;2022-11-20T01:13:36;101040.56;;;1.23
69857;BMP280;57147;53.582;10.112;2022-11-20T01:18:39;101040.06;;;1.32
69857;BMP280;57147;53.582;10.112;2022-11-20T01:23:43;101046.09;;;1.33
69857;BMP280;57147;53.582;10.112;2022-11-20T01:28:45;101035.50;;;1.03
69857;BMP280;57147;53.582;10.112;2022-11-20T01:33:48;101024.53;;;1.12
69857;BMP280;57147;53.582;10.112;2022-11-20T01:38:54;101012.63;;;0.98
69857;BMP280;57147;53.582;10.112;2022-11-20T01:43:55;100976.22;;;0.72
69857;BMP280;57147;53.582;10.112;2022-11-20T01:48:59;100999.38;;;0.93
69857;BMP280;57147;53.582;10.112;2022-11-20T01:54:07;100994.75;;;0.95
69857;BMP280;57147;53.582;10.112;2022-11-20T01:59:11;100993.78;;;0.90
69857;BMP280;57147;53.582;10.112;2022-11-20T02:04:13;100991.03;;;0.78
69857;BMP280;57147;53.582;10.112;2022-11-20T02:09:16;100988.88;;;1.00
69857;BMP280;57147;53.582;10.112;2022-11-20T02:14:17;100987.13;;;0.94
69857;BMP280;57147;53.582;10.112;2022-11-20T02:19:24;100979.91;;;0.89
69857;BMP280;57147;53.582;10.112;2022-11-20T02:24:28;100959.69;;;0.78
69857;BMP280;57147;53.582;10.112;2022-11-20T02:29:33;100975.56;;;0.76
69857;BMP280;57147;53.582;10.112;2022-11-20T02:34:35;100966.84;;;0.89
69857;BMP280;57147;53.582;10.112;2022-11-20T02:39:39;100970.03;;;0.91
69857;BMP280;57147;53.582;10.112;2022-11-20T02:44:40;100970.50;;;0.81
69857;BMP280;57147;53.582;10.112;2022-11-20T02:49:41;100961.19;;;0.92
69857;BMP280;57147;53.582;10.112;2022-11-20T02:54:44;100923.47;;;0.81
69857;BMP280;57147;53.582;10.112;2022-11-20T02:59:44;100953.81;;;1.07
69857;BMP280;57147;53.582;10.112;2022-11-20T03:04:45;100949.00;;;1.23
69857;BMP280;57147;53.582;10.112;2022-11-20T03:09:48;100950.47;;;1.19
69857;BMP280;57147;53.582;10.112;2022-11-20T03:14:48;100904.28;;;0.69
69857;BMP280;57147;53.582;10.112;2022-11-20T03:19:49;100964.81;;;0.91
69857;BMP280;57147;53.582;10.112;2022-11-20T03:24:52;100953.81;;;1.07
69857;BMP280;57147;53.582;10.112;2022-11-20T03:29:53;100951.56;;;0.86
69857;BMP280;57147;53.582;10.112;2022-11-20T03:34:53;100935.56;;;0.76
69857;BMP280;57147;53.582;10.112;2022-11-20T03:39:56;100951.91;;;0.96
69857;BMP280;57147;53.582;10.112;2022-11-20T03:44:57;100940.81;;;1.19
69857;BMP280;57147;53.582;10.112;2022-11-20T03:49:57;100943.13;;;1.27
69857;BMP280;57147;53.582;10.112;2022-11-20T03:55:00;100937.97;;;1.02
69857;BMP280;57147;53.582;10.112;2022-11-20T04:00:02;100926.19;;;0.93
69857;BMP280;57147;53.582;10.112;2022-11-20T04:05:03;100928.16;;;0.98
69857;BMP280;57147;53.582;10.112;2022-11-20T04:10:07;100929.06;;;0.85
69857;BMP280;57147;53.582;10.112;2022-11-20T04:15:08;100905.81;;;0.77
69857;BMP280;57147;53.582;10.112;2022-11-20T04:20:10;100921.97;;;0.92
69857;BMP280;57147;53.582;10.112;2022-11-20T04:25:13;100914.88;;;0.99
69857;BMP280;57147;53.582;10.112;2022-11-20T04:30:13;100922.13;;;0.97
69857;BMP280;57147;53.582;10.112;2022-11-20T04:35:14;100917.19;;;1.07
69857;BMP280;57147;53.582;10.112;2022-11-20T04:40:17;100910.88;;;0.97
69857;BMP280;57147;53.582;10.112;2022-11-20T04:45:18;100919.25;;;1.05
69857;BMP280;57147;53.582;10.112;2022-11-20T04:50:18;100906.66;;;1.14
69857;BMP280;57147;53.582;10.112;2022-11-20T04:55:22;100915.88;;;1.17
69857;BMP280;57147;53.582;10.112;2022-11-20T05:00:22;100898.00;;;0.95
69857;BMP280;57147;53.582;10.112;2022-11-20T05:05:23;100891.78;;;0.96
69857;BMP280;57147;53.582;10.112;2022-11-20T05:10:26;100875.50;;;0.94
69857;BMP280;57147;53.582;10.112;2022-11-20T05:15:27;100888.88;;;1.04
69857;BMP280;57147;53.582;10.112;2022-11-20T05:20:28;100889.16;;;0.96
69857;BMP280;57147;53.582;10.112;2022-11-20T05:25:31;100872.38;;;0.86
69857;BMP280;57147;53.582;10.112;2022-11-20T05:30:32;100866.78;;;0.82
69857;BMP280;57147;53.582;10.112;2022-11-20T05:35:32;100870.78;;;0.85
69857;BMP280;57147;53.582;10.112;2022-11-20T05:40:35;100862.63;;;0.74
69857;BMP280;57147;53.582;10.112;2022-11-20T05:45:36;100857.34;;;0.99
69857;BMP280;57147;53.582;10.112;2022-11-20T05:50:37;100858.72;;;1.20
69857;BMP280;57147;53.582;10.112;2022-11-20T05:55:40;100856.31;;;1.19
69857;BMP280;57147;53.582;10.112;2022-11-20T06:00:40;100857.03;;;1.26
69857;BMP280;57147;53.582;10.112;2022-11-20T06:05:41;100843.09;;;1.13
69857;BMP280;57147;53.582;10.112;2022-11-20T06:10:44;100847.81;;;1.23
69857;BMP280;57147;53.582;10.112;2022-11-20T06:15:48;100857.47;;;1.23
69857;BMP280;57147;53.582;10.112;2022-11-20T06:20:48;100857.34;;;0.99
69857;BMP280;57147;53.582;10.112;2022-11-20T06:25:52;100866.22;;;0.98
69857;BMP280;57147;53.582;10.112;2022-11-20T06:30:53;100866.91;;;0.87
69857;BMP280;57147;53.582;10.112;2022-11-20T06:35:56;100855.16;;;0.78
69857;BMP280;57147;53.582;10.112;2022-11-20T06:40:59;100854.28;;;0.84
69857;BMP280;57147;53.582;10.112;2022-11-20T06:45:59;100859.81;;;0.94
69857;BMP280;57147;53.582;10.112;2022-11-20T06:51:02;100846.97;;;0.93
69857;BMP280;57147;53.582;10.112;2022-11-20T06:56:06;100852.69;;;0.83
69857;BMP280;57147;53.582;10.112;2022-11-20T07:01:10;100839.56;;;1.08
69857;BMP280;57147;53.582;10.112;2022-11-20T07:06:10;100850.31;;;1.00
69857;BMP280;57147;53.582;10.112;2022-11-20T07:11:14;100839.31;;;0.73
69857;BMP280;57147;53.582;10.112;2022-11-20T07:16:14;100828.44;;;0.58
69857;BMP280;57147;53.582;10.112;2022-11-20T07:21:15;100853.75;;;0.75
69857;BMP280;57147;53.582;10.112;2022-11-20T07:26:18;100849.50;;;0.63
69857;BMP280;57147;53.582;10.112;2022-11-20T07:31:18;100845.44;;;0.85
69857;BMP280;57147;53.582;10.112;2022-11-20T07:36:19;100846.28;;;0.79
69857;BMP280;57147;53.582;10.112;2022-11-20T07:41:22;100851.56;;;0.72
69857;BMP280;57147;53.582;10.112;2022-11-20T07:46:23;100850.06;;;0.65
69857;BMP280;57147;53.582;10.112;2022-11-20T07:51:23;100847.31;;;0.60
69857;BMP280;57147;53.582;10.112;2022-11-20T07:56:26;100836.28;;;0.76
69857;BMP280;57147;53.582;10.112;2022-11-20T08:01:27;100844.69;;;0.78
69857;BMP280;57147;53.582;10.112;2022-11-20T08:06:27;100846.59;;;0.89
69857;BMP280;57147;53.582;10.112;2022-11-20T08:11:30;100845.06;;;0.81
69857;BMP280;57147;53.582;10.112;2022-11-20T08:16:31;100841.38;;;0.89
69857;BMP280;57147;53.582;10.112;2022-11-20T08:21:31;100845.72;;;0.95
69857;BMP280;57147;53.582;10.112;2022-11-20T08:26:35;100843.81;;;1.21
69857;BMP280;57147;53.582;10.112;2022-11-20T08:31:35;100855.16;;;1.14
69857;BMP280;57147;53.582;10.112;2022-11-20T08:36:36;100853.91;;;0.80
69857;BMP280;57147;53.582;10.112;2022-11-20T08:41:39;100851.38;;;1.29
69857;BMP280;57147;53.582;10.112;2022-11-20T08:46:41;100859.44;;;1.27
69857;BMP280;57147;53.582;10.112;2022-11-20T08:51:42;100836.16;;;1.07
69857;BMP280;57147;53.582;10.112;2022-11-20T08:56:45;100860.03;;;0.93
69857;BMP280;57147;53.582;10.112;2022-11-20T09:01:45;100858.63;;;0.72
69857;BMP280;57147;53.582;10.112;2022-11-20T09:06:46;100862.91;;;0.66
69857;BMP280;57147;53.582;10.112;2022-11-20T09:11:49;100857.78;;;0.96
69857;BMP280;57147;53.582;10.112;2022-11-20T09:16:50;100861.22;;;0.72
69857;BMP280;57147;53.582;10.112;2022-11-20T09:21:51;100835.72;;;0.92
69857;BMP280;57147;53.582;10.112;2022-11-20T09:26:54;100858.34;;;1.17
69857;BMP280;57147;53.582;10.112;2022-11-20T09:31:54;100848.75;;;0.74
69857;BMP280;57147;53.582;10.112;2022-11-20T09:36:55;100843.84;;;0.84
69857;BMP280;57147;53.582;10.112;2022-11-20T09:42:17;100848.47;;;0.82
69857;BMP280;57147;53.582;10.112;2022-11-20T09:47:28;100844.03;;;0.64
69857;BMP280;57147;53.582;10.112;2022-11-20T09:52:37;100832.47;;;0.54
69857;BMP280;57147;53.582;10.112;2022-11-20T09:57:47;100847.41;;;1.08
69857;BMP280;57147;53.582;10.112;2022-11-20T10:02:52;100848.69;;;1.17
69857;BMP280;57147;53.582;10.112;2022-11-20T10:08:10;100834.22;;;1.14
69857;BMP280;57147;53.582;10.112;2022-11-20T10:13:27;100838.84;;;1.01
69857;BMP280;57147;53.582;10.112;2022-11-20T10:18:42;100832.88;;;0.94
69857;BMP280;57147;53.582;10.112;2022-11-20T10:29:13;100842.25;;;1.01
69857;BMP280;57147;53.582;10.112;2022-11-20T10:34:20;100841.63;;;1.18
69857;BMP280;57147;53.582;10.112;2022-11-20T10:39:29;100832.63;;;1.13
69857;BMP280;57147;53.582;10.112;2022-11-20T10:44:34;100846.16;;;1.29
69857;BMP280;57147;53.582;10.112;2022-11-20T10:49:36;100830.50;;;1.52
69857;BMP280;57147;53.582;10.112;2022-11-20T10:54:41;100834.84;;;1.58
69857;BMP280;57147;53.582;10.112;2022-11-20T10:59:58;100841.03;;;1.75
69857;BMP280;57147;53.582;10.112;2022-11-20T11:05:06;100839.91;;;1.71
69857;BMP280;57147;53.582;10.112;2022-11-20T11:10:15;100797.94;;;1.48
69857;BMP280;57147;53.582;10.112;2022-11-20T11:15:28;100822.19;;;1.73
69857;BMP280;57147;53.582;10.112;2022-11-20T11:20:29;100813.34;;;2.21
69857;BMP280;57147;53.582;10.112;2022-11-20T11:25:31;100810.59;;;2.39
69857;BMP280;57147;53.582;10.112;2022-11-20T11:30:44;100807.19;;;2.04
69857;BMP280;57147;53.582;10.112;2022-11-20T11:35:47;100809.75;;;1.80
69857;BMP280;57147;53.582;10.112;2022-11-20T11:40:47;100803.16;;;1.78
69857;BMP280;57147;53.582;10.112;2022-11-20T11:45:55;100790.06;;;1.66
69857;BMP280;57147;53.582;10.112;2022-11-20T11:50:57;100802.41;;;2.01
69857;BMP280;57147;53.582;10.112;2022-11-20T11:56:02;100808.38;;;1.78
69857;BMP280;57147;53.582;10.112;2022-11-20T12:01:20;100801.19;;;1.62
69857;BMP280;57147;53.582;10.112;2022-11-20T12:06:25;100808.28;;;1.73
69857;BMP280;57147;53.582;10.112;2022-11-20T12:11:31;100806.00;;;1.76
69857;BMP280;57147;53.582;10.112;2022-11-20T12:16:37;100801.69;;;1.82
69857;BMP280;57147;53.582;10.112;2022-11-20T12:21:46;100809.00;;;1.92
69857;BMP280;57147;53.582;10.112;2022-11-20T12:26:58;100804.19;;;2.35
69857;BMP280;57147;53.582;10.112;2022-11-20T12:32:23;100789.56;;;1.99
69857;BMP280;57147;53.582;10.112;2022-11-20T12:37:34;100790.22;;;2.06
69857;BMP280;57147;53.582;10.112;2022-11-20T12:42:46;100779.53;;;1.96
69857;BMP280;57147;53.582;10.112;2022-11-20T12:53:33;100770.75;;;1.91
69857;BMP280;57147;53.582;10.112;2022-11-20T12:58:44;100762.41;;;1.82
69857;BMP280;57147;53.582;10.112;2022-11-20T13:03:51;100770.91;;;1.54
69857;BMP280;57147;53.582;10.112;2022-11-20T13:08:59;100770.00;;;1.60
69857;BMP280;57147;53.582;10.112;2022-11-20T13:14:09;100769.56;;;1.63
69857;BMP280;57147;53.582;10.112;2022-11-20T13:19:13;100770.38;;;1.64
69857;BMP280;57147;53.582;10.112;2022-11-20T13:24:25;100759.56;;;1.83
69857;BMP280;57147;53.582;10.112;2022-11-20T13:29:26;100758.47;;;2.03
69857;BMP280;57147;53.582;10.112;2022-11-20T13:34:30;100749.28;;;2.29
69857;BMP280;57147;53.582;10.112;2022-11-20T13:39:34;100758.47;;;2.26
69857;BMP280;57147;53.582;10.112;2022-11-20T13:44:38;100747.00;;;2.32
69857;BMP280;57147;53.582;10.112;2022-11-20T13:49:40;100685.69;;;2.05
69857;BMP280;57147;53.582;10.112;2022-11-20T13:55:05;100735.69;;;2.55
69857;BMP280;57147;53.582;10.112;2022-11-20T14:00:12;100736.38;;;2.22
69857;BMP280;57147;53.582;10.112;2022-11-20T14:05:17;100738.13;;;2.45
69857;BMP280;57147;53.582;10.112;2022-11-20T14:10:24;100707.13;;;2.02
69857;BMP280;57147;53.582;10.112;2022-11-20T14:15:28;100731.25;;;2.15
69857;BMP280;57147;53.582;10.112;2022-11-20T14:20:29;100716.56;;;2.03
69857;BMP280;57147;53.582;10.112;2022-11-20T14:25:33;100719.97;;;1.92
69857;BMP280;57147;53.582;10.112;2022-11-20T14:30:39;100712.25;;;1.73
69857;BMP280;57147;53.582;10.112;2022-11-20T14:35:44;100720.88;;;1.62
69857;BMP280;57147;53.582;10.112;2022-11-20T14:40:48;100720.88;;;1.86
69857;BMP280;57147;53.582;10.112;2022-11-20T14:45:55;100706.97;;;1.50
69857;BMP280;57147;53.582;10.112;2022-11-20T14:50:56;100710.97;;;1.64
69857;BMP280;57147;53.582;10.112;2022-11-20T14:56:02;100704.47;;;1.55
69857;BMP280;57147;53.582;10.112;2022-11-20T15:01:04;100709.44;;;1.45
69857;BMP280;57147;53.582;10.112;2022-11-20T15:06:06;100697.63;;;1.31
69857;BMP280;57147;53.582;10.112;2022-11-20T15:11:20;100684.69;;;1.36
69857;BMP280;57147;53.582;10.112;2022-11-20T15:16:23;100698.34;;;1.61
69857;BMP280;57147;53.582;10.112;2022-11-20T15:21:24;100698.09;;;1.74
69857;BMP280;57147;53.582;10.112;2022-11-20T15:26:27;100693.44;;;1.53
69857;BMP280;57147;53.582;10.112;2022-11-20T15:31:28;100686.72;;;1.57
69857;BMP280;57147;53.582;10.112;2022-11-20T15:36:29;100690.81;;;1.53
69857;BMP280;57147;53.582;10.112;2022-11-20T15:41:32;100687.44;;;1.64
69857;BMP280;57147;53.582;10.112;2022-11-20T15:46:36;100671.16;;;1.74
69857;BMP280;57147;53.582;10.112;2022-11-20T15:51:38;100670.81;;;1.94
69857;BMP280;57147;53.582;10.112;2022-11-20T15:56:42;100668.66;;;2.02
69857;BMP280;57147;53.582;10.112;2022-11-20T16:01:43;100666.00;;;2.14
69857;BMP280;57147;53.582;10.112;2022-11-20T16:06:43;100668.41;;;1.92
69857;BMP280;57147;53.582;10.112;2022-11-20T16:11:47;100672.03;;;2.14
69857;BMP280;57147;53.582;10.112;2022-11-20T16:16:47;100661.66;;;2.08
69857;BMP280;57147;53.582;10.112;2022-11-20T16:21:48;100641.84;;;2.12
69857;BMP280;57147;53.582;10.112;2022-11-20T16:26:52;100657.56;;;2.24
69857;BMP280;57147;53.582;10.112;2022-11-20T16:31:53;100649.53;;;2.30
69857;BMP280;57147;53.582;10.112;2022-11-20T16:36:53;100648.03;;;2.34
69857;BMP280;57147;53.582;10.112;2022-11-20T16:41:57;100637.09;;;2.37
69857;BMP280;57147;53.582;10.112;2022-11-20T16:46:57;100631.28;;;2.35
69857;BMP280;57147;53.582;10.112;2022-11-20T16:51:58;100634.94;;;2.34
69857;BMP280;57147;53.582;10.112;2022-11-20T16:57:02;100630.88;;;2.27
69857;BMP280;57147;53.582;10.112;2022-11-20T17:02:02;100637.34;;;1.96
69857;BMP280;57147;53.582;10.112;2022-11-20T17:07:03;100629.84;;;1.64
69857;BMP280;57147;53.582;10.112;2022-11-20T17:12:06;100631.53;;;1.82
69857;BMP280;57147;53.582;10.112;2022-11-20T17:17:07;100633.13;;;1.95
69857;BMP280;57147;53.582;10.112;2022-11-20T17:22:07;100630.47;;;2.06
69857;BMP280;57147;53.582;10.112;2022-11-20T17:27:12;100626.72;;;2.14
69857;BMP280;57147;53.582;10.112;2022-11-20T17:32:15;100630.34;;;2.13
69857;BMP280;57147;53.582;10.112;2022-11-20T17:37:16;100612.38;;;2.05
69857;BMP280;57147;53.582;10.112;2022-11-20T17:42:19;100607.00;;;2.11
69857;BMP280;57147;53.582;10.112;2022-11-20T17:47:20;100612.47;;;2.10
69857;BMP280;57147;53.582;10.112;2022-11-20T17:52:20;100609.91;;;1.98
69857;BMP280;57147;53.582;10.112;2022-11-20T17:57:23;100601.72;;;1.83
69857;BMP280;57147;53.582;10.112;2022-11-20T18:02:24;100609.81;;;1.81
69857;BMP280;57147;53.582;10.112;2022-11-20T18:07:25;100610.97;;;1.62
69857;BMP280;57147;53.582;10.112;2022-11-20T18:12:28;100606.88;;;1.66
69857;BMP280;57147;53.582;10.112;2022-11-20T18:17:28;100613.69;;;1.67
69857;BMP280;57147;53.582;10.112;2022-11-20T18:22:29;100609.25;;;1.68
69857;BMP280;57147;53.582;10.112;2022-11-20T18:27:32;100608.00;;;1.70
69857;BMP280;57147;53.582;10.112;2022-11-20T18:32:33;100585.72;;;1.56
69857;BMP280;57147;53.582;10.112;2022-11-20T18:37:34;100605.28;;;1.65
69857;BMP280;57147;53.582;10.112;2022-11-20T18:42:38;100592.75;;;1.44
69857;BMP280;57147;53.582;10.112;2022-11-20T18:47:39;100591.84;;;1.50
69857;BMP280;57147;53.582;10.112;2022-11-20T18:52:41;100597.88;;;1.62
69857;BMP280;57147;53.582;10.112;2022-11-20T18:57:44;100586.38;;;1.63
69857;BMP280;57147;53.582;10.112;2022-11-20T19:02:45;100579.78;;;1.72
69857;BMP280;57147;53.582;10.112;2022-11-20T19:07:45;100580.59;;;1.61
69857;BMP280;57147;53.582;10.112;2022-11-20T19:12:48;100582.25;;;1.91
69857;BMP280;57147;53.582;10.112;2022-11-20T19:17:49;100577.81;;;1.79
69857;BMP280;57147;53.582;10.112;2022-11-20T19:22:49;100543.78;;;1.04
69857;BMP280;57147;53.582;10.112;2022-11-20T19:27:52;100562.66;;;1.30
69857;BMP280;57147;53.582;10.112;2022-11-20T19:32:53;100540.03;;;1.00
69857;BMP280;57147;53.582;10.112;2022-11-20T19:37:54;100541.03;;;1.23
69857;BMP280;57147;53.582;10.112;2022-11-20T19:42:57;100517.75;;;1.09
69857;BMP280;57147;53.582;10.112;2022-11-20T19:47:57;100510.44;;;1.11
69857;BMP280;57147;53.582;10.112;2022-11-20T19:52:58;100540.81;;;1.36
69857;BMP280;57147;53.582;10.112;2022-11-20T19:58:01;100511.50;;;0.99
69857;BMP280;57147;53.582;10.112;2022-11-20T20:03:01;100522.16;;;0.86
69857;BMP280;57147;53.582;10.112;2022-11-20T20:08:02;100495.91;;;0.92
69857;BMP280;57147;53.582;10.112;2022-11-20T20:13:06;100510.13;;;1.08
69857;BMP280;57147;53.582;10.112;2022-11-20T20:18:07;100473.84;;;0.88
69857;BMP280;57147;53.582;10.112;2022-11-20T20:23:07;100489.78;;;0.98
69857;BMP280;57147;53.582;10.112;2022-11-20T20:28:10;100498.09;;;1.07
69857;BMP280;57147;53.582;10.112;2022-11-20T20:33:11;100490.44;;;0.82
69857;BMP280;57147;53.582;10.112;2022-11-20T20:38:12;100485.81;;;1.07
69857;BMP280;57147;53.582;10.112;2022-11-20T20:43:15;100502.94;;;1.15
69857;BMP280;57147;53.582;10.112;2022-11-20T20:48:17;100496.47;;;0.94
69857;BMP280;57147;53.582;10.112;2022-11-20T20:53:18;100467.69;;;0.71
69857;BMP280;57147;53.582;10.112;2022-11-20T20:58:21;100471.00;;;0.78
69857;BMP280;57147;53.582;10.112;2022-11-20T21:03:21;100476.78;;;0.57
69857;BMP280;57147;53.582;10.112;2022-11-20T21:08:22;100464.91;;;0.31
69857;BMP280;57147;53.582;10.112;2022-11-20T21:13:25;100472.13;;;0.17
69857;BMP280;57147;53.582;10.112;2022-11-20T21:18:26;100471.88;;;0.07
69857;BMP280;57147;53.582;10.112;2022-11-20T21:23:26;100473.06;;;-0.07
69857;BMP280;57147;53.582;10.112;2022-11-20T21:28:30;100472.06;;;-0.06
69857;BMP280;57147;53.582;10.112;2022-11-20T21:33:35;100468.00;;;-0.21
69857;BMP280;57147;53.582;10.112;2022-11-20T21:38:36;100458.38;;;-0.20
69857;BMP280;57147;53.582;10.112;2022-11-20T21:43:40;100445.63;;;-0.28
69857;BMP280;57147;53.582;10.112;2022-11-20T21:48:42;100450.78;;;-0.40
69857;BMP280;57147;53.582;10.112;2022-11-20T21:53:43;100445.44;;;-0.45
69857;BMP280;57147;53.582;10.112;2022-11-20T21:58:47;100425.38;;;-0.63
69857;BMP280;57147;53.582;10.112;2022-11-20T22:03:49;100428.47;;;-0.72
69857;BMP280;57147;53.582;10.112;2022-11-20T22:08:50;100421.94;;;-0.81
69857;BMP280;57147;53.582;10.112;2022-11-20T22:13:53;100416.31;;;-0.97
69857;BMP280;57147;53.582;10.112;2022-11-20T22:18:56;100414.84;;;-1.11
69857;BMP280;57147;53.582;10.112;2022-11-20T22:23:57;100404.34;;;-1.23
69857;BMP280;57147;53.582;10.112;2022-11-20T22:29:01;100408.75;;;-1.23
69857;BMP280;57147;53.582;10.112;2022-11-20T22:34:01;100397.28;;;-1.40
69857;BMP280;57147;53.582;10.112;2022-11-20T22:39:03;100412.16;;;-1.47
69857;BMP280;57147;53.582;10.112;2022-11-20T22:44:07;100408.97;;;-1.49
69857;BMP280;57147;53.582;10.112;2022-11-20T22:49:08;100405.00;;;-1.59
69857;BMP280;57147;53.582;10.112;2022-11-20T22:54:10;100403.81;;;-1.63
69857;BMP280;57147;53.582;10.112;2022-11-20T22:59:13;100388.31;;;-1.76
69857;BMP280;57147;53.582;10.112;2022-11-20T23:04:14;100400.38;;;-1.57
69857;BMP280;57147;53.582;10.112;2022-11-20T23:09:14;100397.34;;;-1.54
69857;BMP280;57147;53.582;10.112;2022-11-20T23:14:17;100386.34;;;-1.56
69857;BMP280;57147;53.582;10.112;2022-11-20T23:19:18;100404.50;;;-1.42
69857;BMP280;57147;53.582;10.112;2022-11-20T23:24:19;100364.53;;;-1.55
69857;BMP280;57147;53.582;10.112;2022-11-20T23:29:22;100389.75;;;-1.55
69857;BMP280;57147;53.582;10.112;2022-11-20T23:34:22;100379.81;;;-1.65
69857;BMP280;57147;53.582;10.112;2022-11-20T23:39:23;100372.91;;;-1.77
69857;BMP280;57147;53.582;10.112;2022-11-20T23:44:26;100367.47;;;-1.76
69857;BMP280;57147;53.582;10.112;2022-11-20T23:49:27;100362.38;;;-1.89
69857;BMP280;57147;53.582;10.112;2022-11-20T23:54:27;100346.47;;;-2.06
69857;BMP280;57147;53.582;10.112;2022-11-20T23:59:31;100350.72;;;-2.11
